Time;durP1;ratioP1;P1;durP2;ratioP2;P2;SDS_P1;SDS_P2;PMS_P1;PMS_P2;Temp;Humidity;BMP_temperature;BMP_pressure;BME280_temperature;BME280_humidity;BME280_pressure;Samples;Min_cycle;Max_cycle;Signal;HPM_P1;HPM_P2
2020/11/19 00:02:45;;;;;;;3.14;2.83;;;;;;;20.37;55.83;100958.61;;;;-57
2020/11/19 00:05:45;;;;;;;3.13;2.62;;;;;;;20.36;55.86;100946.73;;;;-56
2020/11/19 00:08:45;;;;;;;3.07;2.66;;;;;;;20.33;55.88;100939.11;;;;-55
2020/11/19 00:11:45;;;;;;;2.86;2.57;;;;;;;20.31;55.95;100926.23;;;;-56
2020/11/19 00:14:45;;;;;;;2.91;2.70;;;;;;;20.30;55.96;100933.23;;;;-55
2020/11/19 00:17:44;;;;;;;3.13;2.83;;;;;;;20.29;55.94;100932.83;;;;-55
2020/11/19 00:20:45;;;;;;;2.87;2.67;;;;;;;20.28;55.95;100933.13;;;;-55
2020/11/19 00:23:45;;;;;;;3.07;2.70;;;;;;;20.26;55.96;100933.19;;;;-55
2020/11/19 00:26:45;;;;;;;4.09;3.01;;;;;;;20.24;55.95;100935.20;;;;-55
2020/11/19 00:29:45;;;;;;;3.06;2.75;;;;;;;20.24;55.97;100936.42;;;;-56
2020/11/19 00:32:45;;;;;;;3.79;2.73;;;;;;;20.23;55.89;100930.70;;;;-55
2020/11/19 00:35:45;;;;;;;2.92;2.63;;;;;;;20.21;55.98;100925.74;;;;-56
2020/11/19 00:38:45;;;;;;;3.00;2.70;;;;;;;20.20;55.90;100923.69;;;;-56
2020/11/19 00:41:45;;;;;;;2.89;2.65;;;;;;;20.19;55.93;100915.92;;;;-56
2020/11/19 00:44:44;;;;;;;3.13;2.79;;;;;;;20.17;55.99;100908.94;;;;-56
2020/11/19 00:47:45;;;;;;;3.19;2.73;;;;;;;20.16;56.08;100913.14;;;;-56
2020/11/19 00:50:45;;;;;;;2.93;2.52;;;;;;;20.15;55.99;100917.45;;;;-54
2020/11/19 00:53:45;;;;;;;2.89;2.65;;;;;;;20.14;56.01;100912.14;;;;-56
2020/11/19 00:56:45;;;;;;;3.09;2.68;;;;;;;20.13;55.90;100905.69;;;;-57
2020/11/19 00:59:44;;;;;;;3.71;2.71;;;;;;;20.12;56.01;100905.94;;;;-56
2020/11/19 01:02:45;;;;;;;3.18;2.88;;;;;;;20.09;56.00;100902.58;;;;-55
2020/11/19 01:05:45;;;;;;;3.15;2.60;;;;;;;20.09;56.06;100899.41;;;;-56
2020/11/19 01:08:45;;;;;;;3.25;2.75;;;;;;;20.07;56.00;100896.94;;;;-55
2020/11/19 01:11:45;;;;;;;3.01;2.71;;;;;;;20.06;56.05;100898.70;;;;-56
2020/11/19 01:14:45;;;;;;;3.13;2.83;;;;;;;20.06;56.04;100902.37;;;;-55
2020/11/19 01:17:45;;;;;;;3.03;2.73;;;;;;;20.04;56.03;100900.39;;;;-56
2020/11/19 01:20:45;;;;;;;3.17;2.87;;;;;;;20.03;56.10;100894.13;;;;-61
2020/11/19 01:23:45;;;;;;;3.67;2.75;;;;;;;20.02;56.08;100890.36;;;;-60
2020/11/19 01:26:45;;;;;;;2.82;2.60;;;;;;;20.01;56.07;100882.47;;;;-61
2020/11/19 01:29:45;;;;;;;3.49;2.67;;;;;;;19.99;56.10;100878.14;;;;-61
2020/11/19 01:32:44;;;;;;;3.19;2.84;;;;;;;19.98;56.10;100870.95;;;;-62
2020/11/19 01:35:45;;;;;;;3.29;2.87;;;;;;;19.97;56.02;100869.33;;;;-61
2020/11/19 01:38:45;;;;;;;2.98;2.74;;;;;;;19.95;56.02;100868.17;;;;-62
2020/11/19 01:41:45;;;;;;;3.09;2.79;;;;;;;19.95;56.02;100857.43;;;;-61
2020/11/19 01:44:45;;;;;;;3.21;2.91;;;;;;;19.94;56.08;100860.91;;;;-61
2020/11/19 01:47:45;;;;;;;2.80;2.60;;;;;;;19.92;56.15;100856.67;;;;-60
2020/11/19 01:50:45;;;;;;;3.38;2.73;;;;;;;19.91;56.09;100855.59;;;;-61
2020/11/19 01:53:45;;;;;;;3.41;2.76;;;;;;;19.90;56.07;100849.02;;;;-61
2020/11/19 01:56:45;;;;;;;3.41;2.79;;;;;;;19.89;56.03;100852.16;;;;-61
2020/11/19 01:59:45;;;;;;;2.99;2.69;;;;;;;19.88;56.01;100854.84;;;;-61
2020/11/19 02:02:45;;;;;;;3.13;2.83;;;;;;;19.87;56.09;100846.20;;;;-61
2020/11/19 02:05:44;;;;;;;3.01;2.71;;;;;;;19.86;56.11;100846.77;;;;-60
2020/11/19 02:08:45;;;;;;;2.84;2.64;;;;;;;19.85;56.08;100844.95;;;;-61
2020/11/19 02:11:45;;;;;;;2.95;2.63;;;;;;;19.84;56.08;100844.14;;;;-61
2020/11/19 02:14:45;;;;;;;3.34;2.67;;;;;;;19.83;56.14;100840.22;;;;-61
2020/11/19 02:17:45;;;;;;;2.98;2.68;;;;;;;19.82;56.16;100832.25;;;;-61
2020/11/19 02:20:44;;;;;;;3.03;2.73;;;;;;;19.82;56.09;100829.81;;;;-61
2020/11/19 02:23:45;;;;;;;3.27;2.79;;;;;;;19.81;56.02;100824.01;;;;-61
2020/11/19 02:26:45;;;;;;;3.83;2.86;;;;;;;19.80;56.10;100829.14;;;;-61
2020/11/19 02:29:45;;;;;;;3.76;2.95;;;;;;;19.78;56.14;100829.52;;;;-61
2020/11/19 02:32:45;;;;;;;3.03;2.73;;;;;;;19.79;56.09;100835.12;;;;-61
2020/11/19 02:35:45;;;;;;;2.93;2.63;;;;;;;19.78;56.11;100829.84;;;;-60
2020/11/19 02:38:45;;;;;;;3.18;2.88;;;;;;;19.77;56.05;100828.52;;;;-61
2020/11/19 02:41:45;;;;;;;2.85;2.65;;;;;;;19.77;56.10;100826.48;;;;-61
2020/11/19 02:44:44;;;;;;;3.02;2.72;;;;;;;19.76;56.11;100822.42;;;;-61
2020/11/19 02:47:45;;;;;;;3.13;2.79;;;;;;;19.74;56.08;100821.99;;;;-62
2020/11/19 02:50:45;;;;;;;3.05;2.67;;;;;;;19.74;56.12;100819.23;;;;-61
2020/11/19 02:53:44;;;;;;;2.95;2.65;;;;;;;19.73;56.12;100823.42;;;;-62
2020/11/19 02:56:45;;;;;;;3.03;2.73;;;;;;;19.73;56.20;100822.53;;;;-55
2020/11/19 02:59:45;;;;;;;3.21;2.91;;;;;;;19.72;56.22;100815.55;;;;-56
2020/11/19 03:02:44;;;;;;;3.35;2.86;;;;;;;19.71;56.12;100812.84;;;;-61
2020/11/19 03:05:45;;;;;;;3.11;2.73;;;;;;;19.70;56.12;100809.96;;;;-61
2020/11/19 03:08:45;;;;;;;3.09;2.79;;;;;;;19.69;56.17;100810.61;;;;-61
2020/11/19 03:11:44;;;;;;;2.97;2.59;;;;;;;19.69;56.13;100805.46;;;;-61
2020/11/19 03:14:45;;;;;;;2.96;2.71;;;;;;;19.68;56.11;100812.54;;;;-61
2020/11/19 03:17:44;;;;;;;2.79;2.55;;;;;;;19.67;56.22;100799.37;;;;-60
2020/11/19 03:20:45;;;;;;;2.81;2.61;;;;;;;19.67;56.20;100794.70;;;;-61
2020/11/19 03:23:45;;;;;;;3.13;2.82;;;;;;;19.66;56.15;100792.92;;;;-61
2020/11/19 03:26:44;;;;;;;2.79;2.59;;;;;;;19.64;56.22;100798.18;;;;-62
2020/11/19 03:29:45;;;;;;;3.37;2.73;;;;;;;19.62;56.18;100790.19;;;;-61
2020/11/19 03:32:44;;;;;;;2.93;2.69;;;;;;;19.63;56.16;100784.01;;;;-61
2020/11/19 03:35:45;;;;;;;3.16;2.86;;;;;;;19.62;56.19;100785.16;;;;-61
2020/11/19 03:38:45;;;;;;;2.99;2.71;;;;;;;19.61;56.17;100783.50;;;;-61
2020/11/19 03:41:44;;;;;;;3.07;2.78;;;;;;;19.61;56.24;100779.22;;;;-61
2020/11/19 03:44:45;;;;;;;2.84;2.60;;;;;;;19.60;56.17;100776.84;;;;-61
2020/11/19 03:47:45;;;;;;;2.99;2.67;;;;;;;19.60;56.20;100781.72;;;;-61
2020/11/19 03:50:44;;;;;;;3.10;2.80;;;;;;;19.58;56.11;100780.63;;;;-55
2020/11/19 03:53:45;;;;;;;3.03;2.73;;;;;;;19.59;56.18;100781.64;;;;-55
2020/11/19 03:56:45;;;;;;;2.93;2.65;;;;;;;19.57;56.26;100779.66;;;;-55
2020/11/19 03:59:45;;;;;;;3.01;2.65;;;;;;;19.57;56.21;100775.48;;;;-55
2020/11/19 04:02:45;;;;;;;2.78;2.58;;;;;;;19.56;56.24;100780.37;;;;-55
2020/11/19 04:05:44;;;;;;;2.68;2.48;;;;;;;19.56;56.20;100775.17;;;;-56
2020/11/19 04:08:45;;;;;;;2.57;2.37;;;;;;;19.55;56.29;100772.97;;;;-56
2020/11/19 04:11:45;;;;;;;2.97;2.71;;;;;;;19.54;56.25;100776.03;;;;-55
2020/11/19 04:14:44;;;;;;;2.91;2.70;;;;;;;19.54;56.23;100786.03;;;;-61
2020/11/19 04:17:45;;;;;;;2.65;2.45;;;;;;;19.53;56.24;100789.20;;;;-61
2020/11/19 04:20:44;;;;;;;2.97;2.67;;;;;;;19.53;56.25;100800.83;;;;-61
2020/11/19 04:23:44;;;;;;;2.89;2.59;;;;;;;19.52;56.25;100803.56;;;;-61
2020/11/19 04:26:45;;;;;;;2.84;2.59;;;;;;;19.52;56.34;100804.62;;;;-61
2020/11/19 04:29:44;;;;;;;2.99;2.74;;;;;;;19.51;56.33;100800.56;;;;-62
2020/11/19 04:32:45;;;;;;;2.87;2.64;;;;;;;19.51;56.32;100797.20;;;;-61
2020/11/19 04:35:45;;;;;;;2.77;2.57;;;;;;;19.50;56.37;100795.01;;;;-62
2020/11/19 04:38:45;;;;;;;2.69;2.49;;;;;;;19.49;56.33;100789.41;;;;-61
2020/11/19 04:41:45;;;;;;;2.69;2.49;;;;;;;19.49;56.31;100788.43;;;;-61
2020/11/19 04:44:44;;;;;;;2.70;2.50;;;;;;;19.48;56.33;100780.44;;;;-62
2020/11/19 04:47:44;;;;;;;2.71;2.51;;;;;;;19.48;56.31;100779.87;;;;-62
2020/11/19 04:50:45;;;;;;;2.53;2.33;;;;;;;19.47;56.42;100791.48;;;;-62
2020/11/19 04:53:44;;;;;;;2.79;2.59;;;;;;;19.47;56.32;100788.97;;;;-61
2020/11/19 04:56:45;;;;;;;2.70;2.50;;;;;;;19.47;56.30;100791.91;;;;-62
2020/11/19 04:59:45;;;;;;;2.87;2.63;;;;;;;19.46;56.37;100786.51;;;;-61
2020/11/19 05:02:44;;;;;;;2.97;2.45;;;;;;;19.45;56.41;100790.09;;;;-63
2020/11/19 05:05:45;;;;;;;2.75;2.47;;;;;;;19.45;56.39;100783.58;;;;-61
2020/11/19 05:08:44;;;;;;;2.54;2.34;;;;;;;19.44;56.37;100777.49;;;;-62
2020/11/19 05:11:45;;;;;;;2.73;2.49;;;;;;;19.44;56.40;100770.47;;;;-62
2020/11/19 05:14:45;;;;;;;2.63;2.43;;;;;;;19.44;56.39;100767.06;;;;-62
2020/11/19 05:17:44;;;;;;;2.53;2.33;;;;;;;19.43;56.48;100763.41;;;;-61
2020/11/19 05:20:45;;;;;;;2.55;2.35;;;;;;;19.42;56.36;100763.87;;;;-61
2020/11/19 05:23:45;;;;;;;2.65;2.45;;;;;;;19.42;56.44;100769.98;;;;-62
2020/11/19 05:26:44;;;;;;;2.80;2.60;;;;;;;19.42;56.49;100777.20;;;;-62
2020/11/19 05:29:45;;;;;;;2.73;2.53;;;;;;;19.41;56.45;100772.56;;;;-62
2020/11/19 05:32:44;;;;;;;2.69;2.45;;;;;;;19.41;56.45;100766.39;;;;-61
2020/11/19 05:35:45;;;;;;;2.53;2.33;;;;;;;19.41;56.36;100752.81;;;;-63
2020/11/19 05:38:45;;;;;;;2.61;2.41;;;;;;;19.39;56.49;100757.34;;;;-62
2020/11/19 05:41:44;;;;;;;2.57;2.37;;;;;;;19.40;56.49;100757.02;;;;-62
2020/11/19 05:44:45;;;;;;;2.49;2.29;;;;;;;19.40;56.52;100745.72;;;;-62
2020/11/19 05:47:45;;;;;;;2.70;2.31;;;;;;;19.38;56.45;100748.70;;;;-62
2020/11/19 05:50:44;;;;;;;2.51;2.31;;;;;;;19.38;56.45;100750.11;;;;-63
2020/11/19 05:53:45;;;;;;;2.39;2.19;;;;;;;19.37;56.55;100751.14;;;;-62
2020/11/19 05:56:44;;;;;;;2.36;2.16;;;;;;;19.37;56.44;100762.52;;;;-61
2020/11/19 05:59:44;;;;;;;2.59;2.39;;;;;;;19.37;56.46;100767.23;;;;-63
2020/11/19 06:02:45;;;;;;;2.59;2.39;;;;;;;19.36;56.49;100771.84;;;;-62
2020/11/19 06:05:44;;;;;;;2.42;2.22;;;;;;;19.36;56.49;100775.41;;;;-62
2020/11/19 06:08:45;;;;;;;2.51;2.29;;;;;;;19.36;56.49;100777.77;;;;-61
2020/11/19 06:11:44;;;;;;;2.55;2.35;;;;;;;19.34;56.53;100785.25;;;;-63
2020/11/19 06:14:44;;;;;;;2.38;2.18;;;;;;;19.35;56.60;100785.66;;;;-63
2020/11/19 06:17:45;;;;;;;2.52;2.32;;;;;;;19.35;56.53;100772.81;;;;-62
2020/11/19 06:20:44;;;;;;;2.43;2.23;;;;;;;19.35;56.68;100777.13;;;;-61
2020/11/19 06:23:44;;;;;;;2.46;2.26;;;;;;;19.36;56.53;100782.59;;;;-55
2020/11/19 06:26:45;;;;;;;2.21;2.01;;;;;;;19.38;56.44;100787.88;;;;-55
2020/11/19 06:29:44;;;;;;;2.37;2.17;;;;;;;19.40;56.48;100796.27;;;;-55
2020/11/19 06:32:45;;;;;;;2.47;2.27;;;;;;;19.42;56.71;100798.27;;;;-61
2020/11/19 06:35:44;;;;;;;2.31;2.11;;;;;;;19.44;56.71;100795.75;;;;-62
2020/11/19 06:38:44;;;;;;;2.30;2.10;;;;;;;19.46;56.72;100796.53;;;;-62
2020/11/19 06:41:45;;;;;;;2.29;2.09;;;;;;;19.50;56.73;100799.56;;;;-62
2020/11/19 06:44:44;;;;;;;2.45;2.25;;;;;;;19.53;56.77;100812.34;;;;-62
2020/11/19 06:47:45;;;;;;;2.46;2.26;;;;;;;19.55;56.77;100806.95;;;;-62
2020/11/19 06:50:44;;;;;;;2.35;2.15;;;;;;;19.59;56.86;100813.99;;;;-61
2020/11/19 06:53:45;;;;;;;2.46;2.21;;;;;;;19.64;56.90;100819.81;;;;-61
2020/11/19 06:56:45;;;;;;;2.24;2.04;;;;;;;19.67;56.84;100816.94;;;;-62
2020/11/19 06:59:44;;;;;;;2.29;2.09;;;;;;;19.71;56.88;100831.13;;;;-63
2020/11/19 07:02:45;;;;;;;2.33;2.13;;;;;;;19.75;57.02;100838.73;;;;-55
2020/11/19 07:05:45;;;;;;;2.21;2.01;;;;;;;19.78;57.07;100838.55;;;;-61
2020/11/19 07:08:44;;;;;;;2.38;2.18;;;;;;;19.82;57.08;100843.72;;;;-62
2020/11/19 07:11:45;;;;;;;2.43;2.23;;;;;;;19.85;57.09;100844.70;;;;-56
2020/11/19 07:14:44;;;;;;;2.19;2.00;;;;;;;19.88;57.03;100849.61;;;;-56
2020/11/19 07:17:45;;;;;;;2.27;2.07;;;;;;;19.91;57.10;100858.69;;;;-61
2020/11/19 07:20:45;;;;;;;2.33;2.13;;;;;;;19.94;57.12;100863.86;;;;-55
2020/11/19 07:23:44;;;;;;;2.27;2.07;;;;;;;19.98;57.07;100865.34;;;;-55
2020/11/19 07:26:45;;;;;;;2.41;2.21;;;;;;;19.99;57.11;100858.37;;;;-61
2020/11/19 07:29:44;;;;;;;2.24;2.05;;;;;;;20.02;57.04;100863.76;;;;-61
2020/11/19 07:32:47;;;;;;;2.40;2.20;;;;;;;20.04;57.06;100867.03;;;;-61
2020/11/19 07:35:45;;;;;;;2.29;2.09;;;;;;;20.06;57.05;100866.00;;;;-61
2020/11/19 07:38:44;;;;;;;2.21;2.01;;;;;;;20.08;57.02;100872.94;;;;-56
2020/11/19 07:41:44;;;;;;;2.13;1.99;;;;;;;20.11;57.05;100875.16;;;;-55
2020/11/19 07:44:44;;;;;;;2.03;1.89;;;;;;;20.14;57.03;100889.36;;;;-55
2020/11/19 07:47:44;;;;;;;1.91;1.81;;;;;;;20.15;56.95;100888.16;;;;-57
2020/11/19 07:50:44;;;;;;;2.13;1.93;;;;;;;20.17;56.93;100880.94;;;;-57
2020/11/19 07:53:44;;;;;;;2.33;2.04;;;;;;;20.19;56.96;100887.52;;;;-55
2020/11/19 07:56:44;;;;;;;1.94;1.84;;;;;;;20.20;56.97;100892.44;;;;-61
2020/11/19 07:59:45;;;;;;;2.53;1.97;;;;;;;20.22;56.95;100894.00;;;;-61
2020/11/19 08:02:44;;;;;;;3.07;1.96;;;;;;;20.24;56.93;100894.27;;;;-62
2020/11/19 08:05:45;;;;;;;1.95;1.85;;;;;;;20.26;56.93;100912.27;;;;-62
2020/11/19 08:08:45;;;;;;;2.08;1.89;;;;;;;20.27;56.91;100916.75;;;;-61
2020/11/19 08:11:44;;;;;;;2.34;2.14;;;;;;;20.28;56.91;100915.80;;;;-61
2020/11/19 08:14:44;;;;;;;2.11;1.89;;;;;;;20.28;56.74;100913.44;;;;-59
2020/11/19 08:17:44;;;;;;;5.17;2.10;;;;;;;20.32;57.00;100907.70;;;;-59
2020/11/19 08:20:44;;;;;;;3.45;2.07;;;;;;;20.34;57.22;100921.80;;;;-58
2020/11/19 08:23:45;;;;;;;3.31;1.99;;;;;;;20.37;57.34;100938.18;;;;-56
2020/11/19 08:26:44;;;;;;;3.27;2.08;;;;;;;20.40;57.27;100950.16;;;;-58
2020/11/19 08:29:44;;;;;;;3.83;1.82;;;;;;;20.43;57.42;100956.31;;;;-51
2020/11/19 08:32:44;;;;;;;2.29;2.00;;;;;;;20.45;56.90;100966.59;;;;-50
2020/11/19 08:35:44;;;;;;;2.67;2.19;;;;;;;20.47;57.21;100979.31;;;;-49
2020/11/19 08:38:45;;;;;;;2.55;2.01;;;;;;;20.49;57.07;101001.97;;;;-48
2020/11/19 08:41:44;;;;;;;8.02;2.25;;;;;;;20.53;57.19;101018.30;;;;-54
2020/11/19 08:44:45;;;;;;;3.80;2.07;;;;;;;20.55;57.06;101033.55;;;;-53
2020/11/19 08:47:44;;;;;;;2.80;2.15;;;;;;;20.58;56.98;101047.37;;;;-52
2020/11/19 08:50:44;;;;;;;2.03;1.88;;;;;;;20.59;56.72;101049.52;;;;-59
2020/11/19 08:53:45;;;;;;;3.55;2.01;;;;;;;20.62;56.80;101065.58;;;;-54
2020/11/19 08:56:44;;;;;;;1.91;1.81;;;;;;;20.65;57.16;101064.00;;;;-53
2020/11/19 08:59:44;;;;;;;2.37;1.76;;;;;;;20.67;56.75;101070.21;;;;-55
2020/11/19 09:02:45;;;;;;;4.55;2.04;;;;;;;20.67;56.76;101074.94;;;;-55
2020/11/19 09:05:44;;;;;;;3.11;1.88;;;;;;;20.67;56.58;101077.27;;;;-61
2020/11/19 09:08:44;;;;;;;2.06;1.86;;;;;;;20.67;56.70;101074.01;;;;-55
2020/11/19 09:11:44;;;;;;;1.91;1.80;;;;;;;20.67;56.50;101088.21;;;;-56
2020/11/19 09:14:44;;;;;;;2.23;1.97;;;;;;;20.67;56.53;101094.20;;;;-55
2020/11/19 09:17:45;;;;;;;2.91;1.80;;;;;;;20.67;56.55;101090.78;;;;-55
2020/11/19 09:20:44;;;;;;;5.43;1.81;;;;;;;20.67;56.72;101092.36;;;;-52
2020/11/19 09:23:44;;;;;;;4.99;1.98;;;;;;;20.68;57.07;101093.50;;;;-60
2020/11/19 09:26:45;;;;;;;2.35;1.71;;;;;;;20.69;57.17;101106.56;;;;-51
2020/11/19 09:29:44;;;;;;;3.65;1.90;;;;;;;20.70;57.43;101114.13;;;;-51
2020/11/19 09:32:44;;;;;;;2.21;1.77;;;;;;;20.69;57.34;101118.37;;;;-51
2020/11/19 09:35:44;;;;;;;1.96;1.73;;;;;;;20.70;57.33;101139.05;;;;-56
2020/11/19 09:39:45;;;;;;;3.25;1.73;;;;;;;20.71;56.97;101137.18;;;;-54
2020/11/19 09:42:46;;;;;;;2.17;1.95;;;;;;;20.70;56.78;101135.14;;;;-55
2020/11/19 09:45:44;;;;;;;2.00;1.80;;;;;;;20.70;56.98;101144.11;;;;-52
2020/11/19 09:48:44;;;;;;;2.46;1.71;;;;;;;20.70;57.32;101146.14;;;;-50
2020/11/19 09:51:44;;;;;;;2.33;1.78;;;;;;;20.71;57.18;101151.52;;;;-51
2020/11/19 09:54:44;;;;;;;3.86;1.87;;;;;;;20.71;57.14;101154.97;;;;-58
2020/11/19 09:57:45;;;;;;;3.01;1.80;;;;;;;20.70;57.16;101152.25;;;;-58
2020/11/19 10:00:44;;;;;;;2.19;1.80;;;;;;;20.70;56.93;101153.14;;;;-57
2020/11/19 10:03:44;;;;;;;2.79;1.75;;;;;;;20.71;56.91;101162.70;;;;-54
2020/11/19 10:06:44;;;;;;;7.83;1.99;;;;;;;20.66;55.82;101158.22;;;;-56
2020/11/19 10:09:44;;;;;;;5.29;2.19;;;;;;;20.63;55.83;101167.08;;;;-56
2020/11/19 10:12:45;;;;;;;3.83;1.91;;;;;;;20.64;55.71;101164.14;;;;-52
2020/11/19 10:15:44;;;;;;;6.17;1.79;;;;;;;20.64;55.86;101174.08;;;;-60
2020/11/19 10:18:44;;;;;;;2.91;1.81;;;;;;;20.65;56.01;101177.20;;;;-56
2020/11/19 10:21:45;;;;;;;3.33;1.79;;;;;;;20.65;56.13;101181.48;;;;-55
2020/11/19 10:24:44;;;;;;;5.11;1.80;;;;;;;20.64;56.29;101178.72;;;;-52
2020/11/19 10:27:44;;;;;;;3.73;1.70;;;;;;;20.63;56.17;101175.71;;;;-53
2020/11/19 10:30:46;;;;;;;3.71;1.93;;;;;;;20.63;56.30;101176.69;;;;-52
2020/11/19 10:33:44;;;;;;;3.21;1.71;;;;;;;20.64;56.23;101173.52;;;;-53
2020/11/19 10:36:44;;;;;;;2.13;1.63;;;;;;;20.63;56.31;101169.52;;;;-61
2020/11/19 10:39:44;;;;;;;3.09;1.81;;;;;;;20.62;56.30;101162.98;;;;-59
2020/11/19 10:42:45;;;;;;;2.67;1.69;;;;;;;20.63;56.36;101157.06;;;;-51
2020/11/19 10:45:45;;;;;;;4.13;1.71;;;;;;;20.61;56.33;101150.77;;;;-55
2020/11/19 10:48:44;;;;;;;2.83;1.78;;;;;;;20.60;56.33;101149.67;;;;-58
2020/11/19 10:51:44;;;;;;;2.40;1.81;;;;;;;20.59;56.34;101145.28;;;;-48
2020/11/19 10:54:44;;;;;;;2.42;1.79;;;;;;;20.59;56.36;101137.95;;;;-57
2020/11/19 10:57:44;;;;;;;5.33;1.74;;;;;;;20.59;56.55;101138.60;;;;-59
2020/11/19 11:00:44;;;;;;;3.07;1.73;;;;;;;20.58;56.30;101133.36;;;;-59
2020/11/19 11:03:44;;;;;;;1.99;1.69;;;;;;;20.56;56.31;101129.16;;;;-60
2020/11/19 11:06:44;;;;;;;5.05;1.86;;;;;;;20.54;56.26;101132.05;;;;-60
2020/11/19 11:09:45;;;;;;;3.79;1.64;;;;;;;20.53;56.23;101131.81;;;;-59
2020/11/19 11:12:44;;;;;;;1.75;1.63;;;;;;;20.51;56.18;101129.51;;;;-59
2020/11/19 11:15:44;;;;;;;2.82;1.67;;;;;;;20.49;56.20;101127.12;;;;-55
2020/11/19 11:18:44;;;;;;;1.84;1.67;;;;;;;20.48;56.22;101119.77;;;;-56
2020/11/19 11:21:44;;;;;;;1.74;1.61;;;;;;;20.46;56.17;101123.44;;;;-56
2020/11/19 11:24:44;;;;;;;2.33;1.70;;;;;;;20.45;56.22;101125.03;;;;-55
2020/11/19 11:27:44;;;;;;;1.90;1.51;;;;;;;20.44;56.22;101128.34;;;;-55
2020/11/19 11:30:44;;;;;;;2.59;1.70;;;;;;;20.43;56.15;101135.67;;;;-55
2020/11/19 11:33:45;;;;;;;1.79;1.50;;;;;;;20.42;56.20;101140.85;;;;-56
2020/11/19 11:36:44;;;;;;;1.99;1.71;;;;;;;20.41;56.18;101139.31;;;;-55
2020/11/19 11:39:44;;;;;;;1.70;1.53;;;;;;;20.39;56.18;101133.17;;;;-55
2020/11/19 11:42:44;;;;;;;2.05;1.59;;;;;;;20.38;56.14;101132.20;;;;-56
2020/11/19 11:45:44;;;;;;;1.98;1.56;;;;;;;20.39;56.15;101137.98;;;;-55
2020/11/19 11:48:44;;;;;;;1.71;1.50;;;;;;;20.37;56.18;101142.42;;;;-55
2020/11/19 11:51:44;;;;;;;1.98;1.65;;;;;;;20.37;56.10;101154.31;;;;-55
2020/11/19 11:54:44;;;;;;;2.32;1.50;;;;;;;20.36;56.15;101164.87;;;;-55
2020/11/19 11:57:44;;;;;;;2.16;1.50;;;;;;;20.34;56.19;101168.13;;;;-58
2020/11/19 12:00:44;;;;;;;2.25;1.53;;;;;;;20.34;56.18;101173.58;;;;-58
2020/11/19 12:03:44;;;;;;;2.00;1.60;;;;;;;20.32;56.21;101173.63;;;;-59
2020/11/19 12:06:44;;;;;;;2.48;1.57;;;;;;;20.32;56.13;101177.86;;;;-59
2020/11/19 12:09:44;;;;;;;1.59;1.40;;;;;;;20.31;56.12;101179.55;;;;-59
2020/11/19 12:12:44;;;;;;;2.67;1.57;;;;;;;20.29;56.16;101176.37;;;;-59
2020/11/19 12:15:44;;;;;;;1.58;1.48;;;;;;;20.28;56.16;101171.45;;;;-59
2020/11/19 12:18:44;;;;;;;1.57;1.47;;;;;;;20.28;56.12;101178.45;;;;-59
2020/11/19 12:21:44;;;;;;;1.71;1.49;;;;;;;20.27;56.15;101178.02;;;;-60
2020/11/19 12:24:44;;;;;;;4.52;1.64;;;;;;;20.25;56.07;101180.02;;;;-65
2020/11/19 12:27:44;;;;;;;2.20;1.59;;;;;;;20.23;55.14;101179.83;;;;-60
2020/11/19 12:30:44;;;;;;;4.20;1.76;;;;;;;20.23;54.96;101183.09;;;;-59
2020/11/19 12:33:44;;;;;;;3.31;1.52;;;;;;;20.24;54.99;101186.94;;;;-59
2020/11/19 12:36:44;;;;;;;2.05;1.55;;;;;;;20.23;54.96;101177.80;;;;-57
2020/11/19 12:39:44;;;;;;;3.10;1.73;;;;;;;20.23;55.00;101176.98;;;;-58
2020/11/19 12:42:44;;;;;;;3.01;1.61;;;;;;;20.21;54.99;101175.11;;;;-58
2020/11/19 12:45:44;;;;;;;2.41;1.60;;;;;;;20.21;54.98;101168.32;;;;-56
2020/11/19 12:48:47;;;;;;;2.35;1.73;;;;;;;20.20;55.07;101168.73;;;;-54
2020/11/19 12:51:44;;;;;;;3.57;1.57;;;;;;;20.20;55.07;101178.09;;;;-48
2020/11/19 12:54:44;;;;;;;2.13;1.50;;;;;;;20.21;55.13;101177.69;;;;-48
2020/11/19 12:57:44;;;;;;;2.32;1.53;;;;;;;20.22;55.39;101172.09;;;;-54
2020/11/19 13:00:44;;;;;;;2.91;1.61;;;;;;;20.23;55.49;101174.45;;;;-55
2020/11/19 13:03:48;;;;;;;1.87;1.59;;;;;;;20.22;55.59;101174.95;;;;-57
2020/11/19 13:06:44;;;;;;;2.37;1.60;;;;;;;20.23;55.82;101171.88;;;;-52
2020/11/19 13:09:44;;;;;;;2.43;1.52;;;;;;;20.24;55.92;101169.52;;;;-53
2020/11/19 13:12:44;;;;;;;3.91;1.72;;;;;;;20.23;54.65;101174.78;;;;-52
2020/11/19 13:15:45;;;;;;;3.93;1.69;;;;;;;20.24;54.83;101183.84;;;;-56
2020/11/19 13:18:44;;;;;;;2.69;1.50;;;;;;;20.25;55.04;101192.64;;;;-55
2020/11/19 13:21:44;;;;;;;2.60;1.63;;;;;;;20.24;54.96;101200.13;;;;-57
2020/11/19 13:24:44;;;;;;;3.81;1.69;;;;;;;20.23;55.07;101201.72;;;;-55
2020/11/19 13:27:44;;;;;;;7.05;1.94;;;;;;;20.24;55.40;101211.28;;;;-54
2020/11/19 13:30:44;;;;;;;3.85;1.63;;;;;;;20.26;55.51;101204.96;;;;-58
2020/11/19 13:33:44;;;;;;;2.82;1.60;;;;;;;20.27;55.49;101195.11;;;;-53
2020/11/19 13:36:44;;;;;;;3.34;1.50;;;;;;;20.25;55.46;101186.08;;;;-59
2020/11/19 13:39:44;;;;;;;3.45;1.52;;;;;;;20.26;55.53;101184.37;;;;-57
2020/11/19 13:42:44;;;;;;;5.13;1.59;;;;;;;20.26;55.57;101183.80;;;;-61
2020/11/19 13:45:44;;;;;;;4.13;1.63;;;;;;;20.27;55.69;101188.52;;;;-57
2020/11/19 13:48:44;;;;;;;3.24;1.58;;;;;;;20.26;55.63;101197.15;;;;-54
2020/11/19 13:51:44;;;;;;;3.23;1.51;;;;;;;20.25;55.66;101200.13;;;;-55
2020/11/19 13:54:44;;;;;;;2.48;1.54;;;;;;;20.24;55.69;101202.89;;;;-58
2020/11/19 13:57:44;;;;;;;3.02;1.74;;;;;;;20.23;55.69;101200.34;;;;-58
2020/11/19 14:00:44;;;;;;;3.54;1.69;;;;;;;20.22;55.77;101201.31;;;;-58
2020/11/19 14:03:45;;;;;;;2.75;1.53;;;;;;;20.21;55.68;101197.45;;;;-58
2020/11/19 14:06:44;;;;;;;3.25;1.50;;;;;;;20.21;55.76;101200.72;;;;-55
2020/11/19 14:09:44;;;;;;;2.96;1.55;;;;;;;20.20;55.76;101196.97;;;;-55
2020/11/19 14:12:44;;;;;;;1.74;1.45;;;;;;;20.20;55.77;101202.02;;;;-58
2020/11/19 14:15:44;;;;;;;1.83;1.41;;;;;;;20.20;55.82;101205.27;;;;-57
2020/11/19 14:18:44;;;;;;;5.43;1.78;;;;;;;20.20;56.01;101201.28;;;;-61
2020/11/19 14:21:44;;;;;;;3.46;1.52;;;;;;;20.21;55.91;101211.95;;;;-59
2020/11/19 14:24:44;;;;;;;2.76;1.40;;;;;;;20.22;55.95;101216.30;;;;-58
2020/11/19 14:27:44;;;;;;;3.00;1.49;;;;;;;20.25;56.05;101220.47;;;;-58
2020/11/19 14:30:44;;;;;;;2.55;1.42;;;;;;;20.28;56.07;101231.85;;;;-51
2020/11/19 14:33:44;;;;;;;2.30;1.49;;;;;;;20.32;56.20;101242.50;;;;-50
2020/11/19 14:36:44;;;;;;;3.11;1.53;;;;;;;20.35;56.29;101246.84;;;;-56
2020/11/19 14:39:44;;;;;;;3.15;1.59;;;;;;;20.38;56.41;101252.52;;;;-52
2020/11/19 14:42:44;;;;;;;2.63;1.42;;;;;;;20.41;56.43;101259.88;;;;-53
2020/11/19 14:45:44;;;;;;;2.86;1.49;;;;;;;20.40;56.29;101254.02;;;;-53
2020/11/19 14:48:44;;;;;;;3.97;1.70;;;;;;;20.37;54.85;101249.07;;;;-58
2020/11/19 14:51:44;;;;;;;2.25;1.70;;;;;;;20.37;54.85;101255.83;;;;-58
2020/11/19 14:54:44;;;;;;;3.12;1.61;;;;;;;20.37;54.64;101265.44;;;;-59
2020/11/19 14:57:44;;;;;;;3.14;1.51;;;;;;;20.37;54.91;101263.56;;;;-57
2020/11/19 15:00:44;;;;;;;3.94;1.59;;;;;;;20.38;55.06;101266.01;;;;-55
2020/11/19 15:03:44;;;;;;;3.03;1.56;;;;;;;20.39;55.27;101276.46;;;;-58
2020/11/19 15:06:44;;;;;;;2.74;1.37;;;;;;;20.39;54.85;101279.31;;;;-59
2020/11/19 15:09:44;;;;;;;2.47;1.61;;;;;;;20.40;54.97;101285.45;;;;-57
2020/11/19 15:12:44;;;;;;;2.96;1.69;;;;;;;20.41;54.70;101289.36;;;;-59
2020/11/19 15:15:44;;;;;;;4.57;1.69;;;;;;;20.42;54.65;101282.92;;;;-55
2020/11/19 15:18:44;;;;;;;2.60;1.53;;;;;;;20.45;55.00;101283.80;;;;-58
2020/11/19 15:21:44;;;;;;;5.55;1.75;;;;;;;20.51;55.49;101281.78;;;;-59
2020/11/19 15:24:44;;;;;;;3.43;1.61;;;;;;;20.56;55.51;101283.23;;;;-60
2020/11/19 15:27:44;;;;;;;3.19;1.43;;;;;;;20.61;55.60;101275.37;;;;-52
2020/11/19 15:30:44;;;;;;;2.19;1.45;;;;;;;20.66;55.69;101280.56;;;;-53
2020/11/19 15:33:44;;;;;;;3.07;1.49;;;;;;;20.68;55.30;101293.70;;;;-55
2020/11/19 15:36:44;;;;;;;2.65;1.51;;;;;;;20.70;55.39;101296.91;;;;-51
2020/11/19 15:39:44;;;;;;;3.94;1.51;;;;;;;20.72;55.53;101306.22;;;;-51
2020/11/19 15:42:44;;;;;;;3.87;1.52;;;;;;;20.74;55.54;101304.55;;;;-56
2020/11/19 15:45:44;;;;;;;4.05;1.61;;;;;;;20.77;55.51;101305.55;;;;-51
2020/11/19 15:48:45;;;;;;;3.88;1.67;;;;;;;20.78;55.53;101314.95;;;;-56
2020/11/19 15:51:44;;;;;;;3.45;1.55;;;;;;;20.79;55.57;101308.84;;;;-54
2020/11/19 15:54:44;;;;;;;2.56;1.46;;;;;;;20.79;55.46;101306.89;;;;-50
2020/11/19 15:57:44;;;;;;;4.24;1.54;;;;;;;20.82;55.58;101299.38;;;;-61
2020/11/19 16:00:44;;;;;;;2.55;1.57;;;;;;;20.82;55.47;101292.12;;;;-57
2020/11/19 16:03:44;;;;;;;4.66;1.59;;;;;;;20.83;55.44;101307.84;;;;-59
2020/11/19 16:06:44;;;;;;;2.29;1.60;;;;;;;20.83;55.42;101318.92;;;;-59
2020/11/19 16:09:44;;;;;;;2.13;1.60;;;;;;;20.84;55.41;101327.75;;;;-57
2020/11/19 16:12:44;;;;;;;2.93;1.50;;;;;;;20.85;55.40;101336.06;;;;-57
2020/11/19 16:15:44;;;;;;;3.25;1.75;;;;;;;20.86;55.39;101338.37;;;;-48
2020/11/19 16:18:44;;;;;;;2.26;1.53;;;;;;;20.87;55.32;101343.27;;;;-52
2020/11/19 16:21:44;;;;;;;2.54;1.56;;;;;;;20.87;55.21;101355.81;;;;-52
2020/11/19 16:24:44;;;;;;;3.59;1.51;;;;;;;20.87;55.43;101370.72;;;;-51
2020/11/19 16:27:44;;;;;;;2.39;1.61;;;;;;;20.88;55.43;101383.22;;;;-51
2020/11/19 16:30:44;;;;;;;2.92;1.51;;;;;;;20.88;55.28;101393.73;;;;-52
2020/11/19 16:33:44;;;;;;;2.43;1.60;;;;;;;20.89;55.19;101397.39;;;;-50
2020/11/19 16:36:44;;;;;;;2.86;1.49;;;;;;;20.90;55.30;101399.70;;;;-55
2020/11/19 16:39:44;;;;;;;1.87;1.41;;;;;;;20.90;55.28;101396.13;;;;-48
2020/11/19 16:42:44;;;;;;;2.39;1.51;;;;;;;20.90;55.26;101397.42;;;;-54
2020/11/19 16:45:44;;;;;;;1.78;1.36;;;;;;;20.91;55.12;101399.79;;;;-59